createdAt,value
2022-09-17T00:01:09.269Z,98232.56
2022-09-17T00:03:36.623Z,98227.06
2022-09-17T00:06:09.932Z,98241.34
2022-09-17T00:08:39.429Z,98233.22
2022-09-17T00:11:15.509Z,98234.22
2022-09-17T00:13:43.771Z,98235.56
2022-09-17T00:16:11.428Z,98243.78
2022-09-17T00:18:41.753Z,98248.56
2022-09-17T00:21:17.267Z,98245.88
2022-09-17T00:23:45.016Z,98254.72
2022-09-17T00:26:12.416Z,98245.78
2022-09-17T00:28:39.578Z,98246.63
2022-09-17T00:31:10.386Z,98256.47
2022-09-17T00:33:37.478Z,98257.63
2022-09-17T00:36:06.127Z,98254.56
2022-09-17T00:38:33.628Z,98266.19
2022-09-17T00:41:01.407Z,98255.31
2022-09-17T00:43:39.524Z,98260.91
2022-09-17T00:46:16.756Z,98258.47
2022-09-17T00:48:45.321Z,98259.81
2022-09-17T00:51:15.986Z,98260.53
2022-09-17T00:53:43.092Z,98270.19
2022-09-17T00:56:20.093Z,98262.72
2022-09-17T00:58:46.989Z,98269.44
2022-09-17T01:01:14.519Z,98271.63
2022-09-17T01:03:41.636Z,98277.84
2022-09-17T01:06:14.185Z,98267.78
2022-09-17T01:09:19.771Z,98276.78
2022-09-17T01:11:54.097Z,98265.69
2022-09-17T01:14:55.982Z,98273.06
2022-09-17T01:17:53.988Z,98268.72
2022-09-17T01:20:53.140Z,98273.16
2022-09-17T01:23:42.014Z,98277.75
2022-09-17T01:26:37.290Z,98279.91
2022-09-17T01:29:26.045Z,98274.22
2022-09-17T01:32:12.813Z,98279.81
2022-09-17T01:35:19.347Z,98285.72
2022-09-17T01:38:04.760Z,98283.31
2022-09-17T01:40:41.237Z,98284.31
2022-09-17T01:43:18.073Z,98284.84
2022-09-17T01:45:51.965Z,98276.19
2022-09-17T01:48:29.502Z,98278.34
2022-09-17T01:51:04.351Z,98281.94
2022-09-17T01:53:38.854Z,98291.75
2022-09-17T01:56:08.897Z,98292.09
2022-09-17T01:58:42.282Z,98295.06
2022-09-17T02:01:12.151Z,98298.00
2022-09-17T02:03:56.127Z,98301.00
2022-09-17T02:06:31.645Z,98298.41
2022-09-17T02:09:06.133Z,98300.34
2022-09-17T02:11:37.252Z,98294.50
2022-09-17T02:14:10.413Z,98300.06
2022-09-17T02:16:42.718Z,98304.00
2022-09-17T02:19:14.331Z,98312.19
2022-09-17T02:21:53.489Z,98302.09
2022-09-17T02:24:59.024Z,98306.06
2022-09-17T02:27:37.455Z,98315.84
2022-09-17T02:30:06.085Z,98309.00
2022-09-17T02:32:33.597Z,98302.84
2022-09-17T02:35:00.630Z,98318.31
2022-09-17T02:37:27.864Z,98312.31
2022-09-17T02:39:55.439Z,98317.88
2022-09-17T02:42:37.292Z,98326.03
2022-09-17T02:45:07.679Z,98327.66
2022-09-17T02:47:58.405Z,98322.44
2022-09-17T02:50:38.843Z,98326.03
2022-09-17T02:53:29.585Z,98332.59
2022-09-17T02:56:19.713Z,98330.78
2022-09-17T02:59:10.552Z,98331.94
2022-09-17T03:01:48.276Z,98327.06
2022-09-17T03:04:18.202Z,98333.28
2022-09-17T03:06:48.279Z,98332.63
2022-09-17T03:09:15.714Z,98329.03
2022-09-17T03:11:42.696Z,98329.03
2022-09-17T03:14:09.632Z,98331.03
2022-09-17T03:16:36.783Z,98341.91
2022-09-17T03:19:04.180Z,98344.69
2022-09-17T03:21:31.490Z,98347.94
2022-09-17T03:24:00.412Z,98346.97
2022-09-17T03:26:27.849Z,98345.31
2022-09-17T03:28:56.433Z,98346.16
2022-09-17T03:31:23.405Z,98347.94
2022-09-17T03:33:50.475Z,98351.19
2022-09-17T03:36:17.442Z,98348.59
2022-09-17T03:38:44.455Z,98353.97
2022-09-17T03:41:11.780Z,98350.19
2022-09-17T03:43:40.003Z,98355.69
2022-09-17T03:46:07.205Z,98355.34
2022-09-17T03:48:37.257Z,98364.00
2022-09-17T03:51:04.743Z,98363.19
2022-09-17T03:53:32.576Z,98365.09
2022-09-17T03:56:01.167Z,98355.34
2022-09-17T03:58:28.730Z,98365.59
2022-09-17T04:00:57.938Z,98364.94
2022-09-17T04:03:26.111Z,98369.63
2022-09-17T04:05:53.077Z,98370.09
2022-09-17T04:08:20.832Z,98373.38
2022-09-17T04:10:48.482Z,98376.59
2022-09-17T04:13:16.857Z,98380.19
2022-09-17T04:15:44.976Z,98381.94
2022-09-17T04:18:12.070Z,98388.44
2022-09-17T04:20:39.489Z,98385.31
2022-09-17T04:23:10.301Z,98384.63
2022-09-17T04:25:37.224Z,98386.91
2022-09-17T04:28:04.133Z,98386.53
2022-09-17T04:30:31.113Z,98389.25
2022-09-17T04:32:58.027Z,98389.09
2022-09-17T04:35:24.920Z,98392.84
2022-09-17T04:37:56.036Z,98391.69
2022-09-17T04:40:24.306Z,98389.63
2022-09-17T04:43:03.417Z,98385.25
2022-09-17T04:45:33.583Z,98393.63
2022-09-17T04:48:01.999Z,98392.66
2022-09-17T04:50:29.115Z,98393.38
2022-09-17T04:52:56.044Z,98392.22
2022-09-17T04:55:22.955Z,98411.91
2022-09-17T04:57:53.023Z,98408.59
2022-09-17T05:00:22.003Z,98410.53
2022-09-17T05:02:50.992Z,98417.97
2022-09-17T05:05:18.990Z,98421.31
2022-09-17T05:07:46.157Z,98407.25
2022-09-17T05:10:15.595Z,98405.06
2022-09-17T05:12:48.258Z,98407.53
2022-09-17T05:15:15.211Z,98407.09
2022-09-17T05:17:42.196Z,98410.84
2022-09-17T05:20:09.974Z,98405.97
2022-09-17T05:22:41.660Z,98421.47
2022-09-17T05:25:08.981Z,98411.28
2022-09-17T05:27:36.070Z,98400.34
2022-09-17T05:30:03.169Z,98420.84
2022-09-17T05:32:30.536Z,98426.72
2022-09-17T05:34:57.494Z,98421.50
2022-09-17T05:37:24.500Z,98425.16
2022-09-17T05:39:52.106Z,98427.97
2022-09-17T05:42:19.082Z,98426.03
2022-09-17T05:44:46.043Z,98432.78
2022-09-17T05:47:12.959Z,98423.66
2022-09-17T05:49:39.943Z,98432.47
2022-09-17T05:52:06.834Z,98435.50
2022-09-17T05:54:33.744Z,98434.69
2022-09-17T05:57:01.863Z,98431.84
2022-09-17T05:59:28.818Z,98430.38
2022-09-17T06:01:55.859Z,98440.63
2022-09-17T06:04:22.739Z,98442.94
2022-09-17T06:06:49.715Z,98441.50
2022-09-17T06:09:16.639Z,98432.75
2022-09-17T06:11:43.609Z,98429.75
2022-09-17T06:14:10.621Z,98436.75
2022-09-17T06:16:37.676Z,98442.50
2022-09-17T06:19:04.705Z,98443.06
2022-09-17T06:21:32.548Z,98438.50
2022-09-17T06:24:00.999Z,98438.66
2022-09-17T06:26:27.985Z,98449.22
2022-09-17T06:28:54.900Z,98449.28
2022-09-17T06:31:21.876Z,98448.56
2022-09-17T06:33:48.868Z,98448.50
2022-09-17T06:36:15.812Z,98446.47
2022-09-17T06:38:42.762Z,98444.88
2022-09-17T06:41:09.939Z,98441.97
2022-09-17T06:43:36.853Z,98448.44
2022-09-17T06:46:09.360Z,98437.53
2022-09-17T06:48:37.699Z,98441.06
2022-09-17T06:51:07.089Z,98447.28
2022-09-17T06:53:36.815Z,98449.22
2022-09-17T06:56:06.743Z,98447.84
2022-09-17T06:58:37.379Z,98451.22
2022-09-17T07:01:05.470Z,98456.41
2022-09-17T07:03:33.045Z,98455.38
2022-09-17T07:06:00.451Z,98458.09
2022-09-17T07:08:27.521Z,98461.91
2022-09-17T07:10:58.295Z,98462.50
2022-09-17T07:13:26.157Z,98476.06
2022-09-17T07:15:56.098Z,98480.88
2022-09-17T07:18:23.725Z,98482.38
2022-09-17T07:21:00.045Z,98482.47
2022-09-17T07:23:28.547Z,98485.75
2022-09-17T07:25:57.857Z,98475.94
2022-09-17T07:28:25.911Z,98482.78
2022-09-17T07:30:53.836Z,98485.09
2022-09-17T07:33:23.599Z,98478.09
2022-09-17T07:35:58.997Z,98484.28
2022-09-17T07:38:27.161Z,98480.28
2022-09-17T07:41:14.361Z,98487.75
2022-09-17T07:43:42.670Z,98490.50
2022-09-17T07:46:20.599Z,98484.91
2022-09-17T07:48:48.347Z,98485.44
2022-09-17T07:51:22.308Z,98490.81
2022-09-17T07:53:57.956Z,98491.31
2022-09-17T07:56:27.246Z,98496.88
2022-09-17T07:58:54.934Z,98493.13
2022-09-17T08:01:22.709Z,98492.22
2022-09-17T08:03:54.626Z,98503.25
2022-09-17T08:06:26.220Z,98488.63
2022-09-17T08:08:53.374Z,98495.19
2022-09-17T08:11:44.690Z,98505.91
2022-09-17T08:14:11.715Z,98495.13
2022-09-17T08:16:38.831Z,98500.69
2022-09-17T08:19:05.768Z,98496.44
2022-09-17T08:21:32.731Z,98484.34
2022-09-17T08:23:59.699Z,98491.41
2022-09-17T08:26:27.606Z,98480.78
2022-09-17T08:28:56.657Z,98486.31
2022-09-17T08:31:26.907Z,98481.53
2022-09-17T08:33:54.343Z,98487.88
2022-09-17T08:36:23.045Z,98482.75
2022-09-17T08:38:53.746Z,98477.72
2022-09-17T08:41:49.649Z,98482.22
2022-09-17T08:44:37.989Z,98473.97
2022-09-17T08:47:18.931Z,98475.44
2022-09-17T08:49:54.100Z,98483.56
2022-09-17T08:52:39.160Z,98484.34
2022-09-17T08:55:25.491Z,98483.09
2022-09-17T08:58:14.353Z,98476.97
2022-09-17T09:01:05.345Z,98479.38
2022-09-17T09:03:34.974Z,98479.28
2022-09-17T09:06:02.288Z,98484.13
2022-09-17T09:08:35.541Z,98479.94
2022-09-17T09:11:12.856Z,98475.06
2022-09-17T09:13:43.528Z,98487.97
2022-09-17T09:16:21.304Z,98478.06
2022-09-17T09:18:54.489Z,98476.59
2022-09-17T09:21:28.785Z,98479.34
2022-09-17T09:23:58.663Z,98478.13
2022-09-17T09:26:46.797Z,98477.41
2022-09-17T09:29:22.964Z,98467.97
2022-09-17T09:32:16.640Z,98476.00
2022-09-17T09:34:45.173Z,98475.69
2022-09-17T09:37:30.132Z,98480.34
2022-09-17T09:40:21.487Z,98485.78
2022-09-17T09:42:49.839Z,98491.59
2022-09-17T09:45:26.427Z,98476.59
2022-09-17T09:47:59.247Z,98491.44
2022-09-17T09:51:06.242Z,98491.22
2022-09-17T09:54:14.865Z,98494.13
2022-09-17T09:56:53.854Z,98496.88
2022-09-17T09:59:21.049Z,98475.19
2022-09-17T10:01:48.059Z,98494.16
2022-09-17T10:04:26.860Z,98489.69
2022-09-17T10:07:14.101Z,98488.78
2022-09-17T10:09:46.505Z,98509.25
2022-09-17T10:12:13.614Z,98502.81
2022-09-17T10:14:42.310Z,98505.44
2022-09-17T10:17:25.602Z,98500.69
2022-09-17T10:20:10.785Z,98500.28
2022-09-17T10:22:39.705Z,98523.41
2022-09-17T10:25:22.589Z,98509.44
2022-09-17T10:27:50.023Z,98506.13
2022-09-17T10:30:19.598Z,98500.41
2022-09-17T10:33:23.463Z,98511.34
2022-09-17T10:36:02.733Z,98509.34
2022-09-17T10:38:35.572Z,98516.94
2022-09-17T10:41:11.591Z,98515.31
2022-09-17T10:43:38.365Z,98527.44
2022-09-17T10:46:15.913Z,98527.22
2022-09-17T10:49:09.163Z,98530.25
2022-09-17T10:51:36.993Z,98529.25
2022-09-17T10:54:12.729Z,98518.66
2022-09-17T10:56:45.096Z,98507.50
2022-09-17T10:59:21.465Z,98520.84
2022-09-17T11:02:27.160Z,98525.06
2022-09-17T11:05:12.887Z,98533.69
2022-09-17T11:07:49.242Z,98533.38
2022-09-17T11:10:33.377Z,98542.94
2022-09-17T11:13:25.141Z,98538.03
2022-09-17T11:15:59.975Z,98526.91
2022-09-17T11:18:26.883Z,98537.25
2022-09-17T11:21:22.934Z,98527.72
2022-09-17T11:24:25.277Z,98524.81
2022-09-17T11:27:19.881Z,98524.47
2022-09-17T11:30:09.841Z,98534.88
2022-09-17T11:33:25.861Z,98530.56
2022-09-17T11:36:00.318Z,98533.72
2022-09-17T11:38:37.277Z,98544.03
2022-09-17T11:41:23.321Z,98539.91
2022-09-17T11:44:15.122Z,98544.13
2022-09-17T11:46:51.568Z,98539.69
2022-09-17T11:49:30.513Z,98544.56
2022-09-17T11:52:01.881Z,98545.84
2022-09-17T11:54:28.722Z,98542.75
2022-09-17T11:57:13.875Z,98543.53
2022-09-17T12:00:02.450Z,98544.72
2022-09-17T12:02:49.037Z,98549.84
2022-09-17T12:05:21.249Z,98550.91
2022-09-17T12:08:07.844Z,98547.91
2022-09-17T12:11:01.992Z,98555.19
2022-09-17T12:13:46.896Z,98549.88
2022-09-17T12:16:16.854Z,98552.53
2022-09-17T12:19:14.207Z,98554.75
2022-09-17T12:21:45.288Z,98557.03
2022-09-17T12:24:32.445Z,98557.44
2022-09-17T12:27:18.003Z,98563.47
2022-09-17T12:30:00.741Z,98566.13
2022-09-17T12:32:59.612Z,98569.13
2022-09-17T12:35:52.702Z,98569.00
2022-09-17T12:39:02.639Z,98559.75
2022-09-17T12:42:02.319Z,98568.66
2022-09-17T12:44:58.919Z,98576.53
2022-09-17T12:47:34.811Z,98581.44
2022-09-17T12:50:39.350Z,98575.28
2022-09-17T12:53:49.582Z,98584.88
2022-09-17T12:56:16.704Z,98586.63
2022-09-17T12:58:46.683Z,98588.72
2022-09-17T13:01:22.688Z,98592.75
2022-09-17T13:03:56.433Z,98594.81
2022-09-17T13:06:40.769Z,98583.53
2022-09-17T13:09:10.669Z,98583.13
2022-09-17T13:12:08.361Z,98585.22
2022-09-17T13:14:59.989Z,98588.97
2022-09-17T13:17:33.136Z,98586.69
2022-09-17T13:20:16.757Z,98575.81
2022-09-17T13:22:47.700Z,98572.75
2022-09-17T13:25:17.847Z,98580.16
2022-09-17T13:27:46.219Z,98573.25
2022-09-17T13:30:18.625Z,98572.72
2022-09-17T13:32:52.917Z,98553.84
2022-09-17T13:35:22.719Z,98560.84
2022-09-17T13:37:52.824Z,98569.25
2022-09-17T13:40:30.715Z,98565.81
2022-09-17T13:43:09.604Z,98572.78
2022-09-17T13:46:14.274Z,98566.97
2022-09-17T13:48:49.491Z,98573.38
2022-09-17T13:51:31.967Z,98567.91
2022-09-17T13:54:02.631Z,98566.56
2022-09-17T13:56:37.208Z,98576.31
2022-09-17T13:59:27.501Z,98580.03
2022-09-17T14:02:01.054Z,98574.81
2022-09-17T14:04:41.235Z,98579.31
2022-09-17T14:07:23.703Z,98575.44
2022-09-17T14:10:01.506Z,98572.91
2022-09-17T14:12:47.683Z,98574.78
2022-09-17T14:15:36.581Z,98571.78
2022-09-17T14:18:29.253Z,98580.06
2022-09-17T14:21:06.960Z,98573.63
2022-09-17T14:23:35.330Z,98581.38
2022-09-17T14:26:08.246Z,98593.97
2022-09-17T14:28:48.284Z,98597.97
2022-09-17T14:31:25.236Z,98603.97
2022-09-17T14:33:52.333Z,98586.56
2022-09-17T14:36:22.143Z,98591.75
2022-09-17T14:38:53.559Z,98591.47
2022-09-17T14:41:35.600Z,98594.38
2022-09-17T14:44:12.684Z,98598.66
2022-09-17T14:46:55.116Z,98600.34
2022-09-17T14:49:23.441Z,98614.97
2022-09-17T14:51:54.507Z,98631.81
2022-09-17T14:54:26.261Z,98625.47
2022-09-17T14:57:00.404Z,98626.56
2022-09-17T14:59:52.415Z,98616.03
2022-09-17T15:02:46.140Z,98620.25
2022-09-17T15:05:24.932Z,98613.03
2022-09-17T15:07:51.993Z,98620.34
2022-09-17T15:10:21.758Z,98620.78
2022-09-17T15:12:50.737Z,98619.16
2022-09-17T15:15:24.737Z,98624.47
2022-09-17T15:17:52.843Z,98644.94
2022-09-17T15:20:27.716Z,98658.50
2022-09-17T15:23:23.820Z,98679.56
2022-09-17T15:25:55.180Z,98654.44
2022-09-17T15:28:42.569Z,98647.47
2022-09-17T15:31:20.623Z,98636.53
2022-09-17T15:33:47.917Z,98640.19
2022-09-17T15:36:20.553Z,98645.47
2022-09-17T15:38:47.854Z,98643.00
2022-09-17T15:41:35.054Z,98641.13
2022-09-17T15:44:30.278Z,98640.91
2022-09-17T15:47:37.270Z,98641.84
2022-09-17T15:50:13.690Z,98634.53
2022-09-17T15:52:40.873Z,98633.00
2022-09-17T15:55:48.453Z,98636.59
2022-09-17T15:58:27.975Z,98638.56
2022-09-17T16:01:17.694Z,98656.31
2022-09-17T16:03:44.683Z,98658.25
2022-09-17T16:06:20.993Z,98658.59
2022-09-17T16:08:51.961Z,98661.38
2022-09-17T16:11:20.986Z,98658.88
2022-09-17T16:13:53.582Z,98660.81
2022-09-17T16:16:29.242Z,98656.31
2022-09-17T16:18:56.746Z,98666.75
2022-09-17T16:21:23.697Z,98668.97
2022-09-17T16:23:51.416Z,98671.69
2022-09-17T16:26:22.546Z,98682.81
2022-09-17T16:28:53.770Z,98679.63
2022-09-17T16:31:21.248Z,98677.50
2022-09-17T16:33:48.255Z,98680.00
2022-09-17T16:36:18.560Z,98686.25
2022-09-17T16:38:45.474Z,98685.03
2022-09-17T16:41:12.474Z,98688.75
2022-09-17T16:43:40.429Z,98685.88
2022-09-17T16:46:11.187Z,98696.75
2022-09-17T16:48:38.400Z,98696.69
2022-09-17T16:51:09.449Z,98696.00
2022-09-17T16:53:36.525Z,98693.00
2022-09-17T16:56:07.936Z,98697.81
2022-09-17T16:58:35.017Z,98704.25
2022-09-17T17:01:13.273Z,98705.59
2022-09-17T17:03:40.990Z,98707.00
2022-09-17T17:06:18.829Z,98707.09
2022-09-17T17:08:45.842Z,98703.28
2022-09-17T17:11:13.308Z,98703.28
2022-09-17T17:13:42.309Z,98705.66
2022-09-17T17:16:10.990Z,98702.84
2022-09-17T17:18:38.139Z,98702.13
2022-09-17T17:21:10.293Z,98697.25
2022-09-17T17:23:37.360Z,98708.22
2022-09-17T17:26:04.518Z,98703.88
2022-09-17T17:28:33.161Z,98706.00
2022-09-17T17:31:00.117Z,98717.44
2022-09-17T17:33:27.353Z,98716.13
2022-09-17T17:35:54.225Z,98728.13
2022-09-17T17:38:21.679Z,98724.72
2022-09-17T17:40:48.616Z,98719.66
2022-09-17T17:43:15.584Z,98723.94
2022-09-17T17:45:42.476Z,98716.06
2022-09-17T17:48:09.387Z,98732.88
2022-09-17T17:50:36.302Z,98728.25
2022-09-17T17:53:03.280Z,98735.88
2022-09-17T17:55:30.261Z,98734.75
2022-09-17T17:58:01.395Z,98731.94
2022-09-17T18:00:29.037Z,98733.06
2022-09-17T18:02:56.096Z,98735.88
2022-09-17T18:05:23.653Z,98741.72
2022-09-17T18:07:50.525Z,98741.25
2022-09-17T18:10:17.635Z,98732.47
2022-09-17T18:12:50.626Z,98742.88
2022-09-17T18:15:17.802Z,98722.66
2022-09-17T18:17:44.785Z,98738.69
2022-09-17T18:20:12.040Z,98735.34
2022-09-17T18:22:39.047Z,98731.22
2022-09-17T18:25:06.422Z,98739.22
2022-09-17T18:27:33.414Z,98744.56
2022-09-17T18:30:00.492Z,98742.69
2022-09-17T18:32:27.453Z,98747.84
2022-09-17T18:34:54.360Z,98740.88
2022-09-17T18:37:21.293Z,98739.16
2022-09-17T18:40:04.710Z,98746.75
2022-09-17T18:42:31.901Z,98737.81
2022-09-17T18:44:58.909Z,98736.53
2022-09-17T18:47:25.835Z,98740.88
2022-09-17T18:49:52.825Z,98744.03
2022-09-17T18:52:20.313Z,98748.84
2022-09-17T18:54:47.215Z,98739.88
2022-09-17T18:57:14.274Z,98743.84
2022-09-17T18:59:41.201Z,98744.22
2022-09-17T19:02:12.177Z,98748.19
2022-09-17T19:04:39.353Z,98751.34
2022-09-17T19:07:07.125Z,98750.06
2022-09-17T19:09:34.111Z,98752.84
2022-09-17T19:12:01.070Z,98759.28
2022-09-17T19:14:28.011Z,98756.00
2022-09-17T19:16:55.415Z,98753.69
2022-09-17T19:19:22.327Z,98760.91
2022-09-17T19:21:50.780Z,98764.53
2022-09-17T19:24:18.217Z,98760.44
2022-09-17T19:26:50.666Z,98763.41
2022-09-17T19:29:17.883Z,98768.38
2022-09-17T19:31:44.950Z,98763.31
2022-09-17T19:34:12.027Z,98764.97
2022-09-17T19:36:38.904Z,98753.47
2022-09-17T19:39:06.240Z,98769.53
2022-09-17T19:41:36.145Z,98756.19
2022-09-17T19:44:04.012Z,98766.66
2022-09-17T19:46:31.795Z,98777.94
2022-09-17T19:48:58.978Z,98778.94
2022-09-17T19:51:28.462Z,98780.63
2022-09-17T19:53:56.650Z,98769.34
2022-09-17T19:56:25.554Z,98772.94
2022-09-17T19:58:52.824Z,98773.09
2022-09-17T20:01:20.443Z,98777.88
2022-09-17T20:03:48.338Z,98777.72
2022-09-17T20:06:17.528Z,98783.31
2022-09-17T20:08:49.643Z,98784.28
2022-09-17T20:11:18.294Z,98785.75
2022-09-17T20:13:45.270Z,98790.81
2022-09-17T20:16:15.799Z,98788.72
2022-09-17T20:18:44.228Z,98796.84
2022-09-17T20:21:16.564Z,98795.41
2022-09-17T20:23:44.017Z,98797.19
2022-09-17T20:26:13.328Z,98800.47
2022-09-17T20:28:41.393Z,98800.47
2022-09-17T20:31:12.415Z,98806.16
2022-09-17T20:33:39.844Z,98819.09
2022-09-17T20:36:12.575Z,98806.34
2022-09-17T20:41:27.830Z,98818.44
2022-09-17T20:43:55.031Z,98819.25
2022-09-17T20:46:28.261Z,98816.97
2022-09-17T20:48:57.689Z,98824.03
2022-09-17T20:51:27.541Z,98823.38
2022-09-17T20:53:54.857Z,98826.00
2022-09-17T20:56:26.339Z,98838.09
2022-09-17T20:59:04.105Z,98834.84
2022-09-17T21:01:34.684Z,98834.19
2022-09-17T21:04:04.037Z,98825.88
2022-09-17T21:06:36.462Z,98828.66
2022-09-17T21:09:04.433Z,98821.50
2022-09-17T21:11:31.817Z,98824.31
2022-09-17T21:14:00.210Z,98837.91
2022-09-17T21:16:27.791Z,98833.53
2022-09-17T21:19:01.602Z,98848.75
2022-09-17T21:21:29.022Z,98842.25
2022-09-17T21:24:01.140Z,98845.84
2022-09-17T21:26:29.136Z,98844.56
2022-09-17T21:28:57.049Z,98842.94
2022-09-17T21:31:29.761Z,98847.34
2022-09-17T21:34:01.664Z,98857.00
2022-09-17T21:36:31.371Z,98862.56
2022-09-17T21:39:00.634Z,98868.13
2022-09-17T21:41:28.187Z,98860.47
2022-09-17T21:43:55.850Z,98858.81
2022-09-17T21:46:25.187Z,98864.88
2022-09-17T21:48:54.756Z,98878.91
2022-09-17T21:51:23.324Z,98877.97
2022-09-17T21:53:51.899Z,98883.84
2022-09-17T21:56:20.922Z,98879.41
2022-09-17T21:58:52.359Z,98883.97
2022-09-17T22:01:22.064Z,98893.75
2022-09-17T22:03:49.374Z,98882.13
2022-09-17T22:06:21.705Z,98883.41
2022-09-17T22:08:49.959Z,98882.44
2022-09-17T22:11:41.675Z,98881.59
2022-09-17T22:14:14.124Z,98888.47
2022-09-17T22:16:46.617Z,98887.44
2022-09-17T22:19:16.089Z,98880.09
2022-09-17T22:21:47.325Z,98880.72
2022-09-17T22:24:16.299Z,98877.31
2022-09-17T22:26:46.497Z,98878.75
2022-09-17T22:29:16.159Z,98872.69
2022-09-17T22:31:43.826Z,98856.38
2022-09-17T22:34:14.042Z,98857.28
2022-09-17T22:36:41.745Z,98850.91
2022-09-17T22:39:09.741Z,98840.31
2022-09-17T22:41:42.910Z,98855.00
2022-09-17T22:44:13.516Z,98849.59
2022-09-17T22:46:41.655Z,98846.81
2022-09-17T22:49:11.049Z,98851.41
2022-09-17T22:51:39.742Z,98851.41
2022-09-17T22:54:07.381Z,98853.19
2022-09-17T22:56:36.255Z,98856.81
2022-09-17T22:59:04.445Z,98859.44
2022-09-17T23:01:34.011Z,98871.72
2022-09-17T23:04:01.520Z,98858.81
2022-09-17T23:06:31.279Z,98865.38
2022-09-17T23:08:59.612Z,98867.97
2022-09-17T23:11:30.635Z,98864.38
2022-09-17T23:14:02.225Z,98867.97
2022-09-17T23:16:34.727Z,98864.91
2022-09-17T23:19:01.617Z,98849.38
2022-09-17T23:21:28.678Z,98846.78
2022-09-17T23:23:55.602Z,98841.19
2022-09-17T23:26:24.953Z,98849.22
2022-09-17T23:28:52.521Z,98841.91
2022-09-17T23:31:23.178Z,98845.72
2022-09-17T23:33:50.995Z,98851.44
2022-09-17T23:36:23.600Z,98843.63
2022-09-17T23:38:51.650Z,98851.47
2022-09-17T23:41:21.741Z,98859.66
2022-09-17T23:43:51.151Z,98856.19
2022-09-17T23:46:19.461Z,98861.59
2022-09-17T23:48:47.314Z,98864.88
2022-09-17T23:51:33.126Z,98867.34
2022-09-17T23:54:00.341Z,98866.50
2022-09-17T23:56:28.685Z,98867.50
2022-09-17T23:58:56.970Z,98870.91
